TRADE22 KRDD-KHND
Flight info
| Callsign | TRADE22 |
|---|---|
| Flight time | 1h 58m |
| Altitude | 25000 |
| Route | KENDL4 RBL TRUCK FMG J92 LIDAT FUULL GAMES2 |
| Aircraft | P46T/L-SBDGRWY/SB1 |
Departure
| Time | 2026-04-29 02:29 |
|---|---|
| Airport | Redding Municipal Airport (KRDD) |
Arrival
| Time | 2026-04-29 04:27 |
|---|---|
| Airport | Henderson Executive Airport (KHND) |
| Time | Latitude | Longitude | Altitude | Speed | Heading |
|---|---|---|---|---|---|
| 2026-04-29 02:08 | 40.50867 | -122.29969 | 499 ft | 0 kts | 88° |
| 2026-04-29 02:24 | 40.50867 | -122.29927 | 499 ft | 10 kts | 89° |
| 2026-04-29 02:24 | 40.50942 | -122.29861 | 499 ft | 20 kts | 4° |
| 2026-04-29 02:25 | 40.51220 | -122.29851 | 498 ft | 20 kts | 359° |
| 2026-04-29 02:25 | 40.51357 | -122.29833 | 499 ft | 19 kts | 6° |
| 2026-04-29 02:25 | 40.51487 | -122.29814 | 498 ft | 19 kts | 10° |
| 2026-04-29 02:25 | 40.51582 | -122.29719 | 498 ft | 17 kts | 46° |
| 2026-04-29 02:26 | 40.51664 | -122.29625 | 499 ft | 15 kts | 3° |
| 2026-04-29 02:26 | 40.51766 | -122.29628 | 499 ft | 15 kts | 360° |
| 2026-04-29 02:26 | 40.51868 | -122.29628 | 499 ft | 15 kts | 0° |
| 2026-04-29 02:26 | 40.51968 | -122.29628 | 499 ft | 12 kts | 0° |
| 2026-04-29 02:27 | 40.52009 | -122.29618 | 499 ft | 4 kts | 33° |
| 2026-04-29 02:27 | 40.52024 | -122.29588 | 499 ft | 0 kts | 72° |
| 2026-04-29 02:28 | 40.52020 | -122.29499 | 499 ft | 19 kts | 135° |
| 2026-04-29 02:28 | 40.51845 | -122.29486 | 499 ft | 44 kts | 180° |
| 2026-04-29 02:28 | 40.51363 | -122.29485 | 498 ft | 90 kts | 179° |
| 2026-04-29 02:28 | 40.50663 | -122.29467 | 661 ft | 105 kts | 178° |
| 2026-04-29 02:29 | 40.49912 | -122.29472 | 1009 ft | 114 kts | 184° |
| 2026-04-29 02:29 | 40.49207 | -122.30019 | 1413 ft | 124 kts | 232° |
| 2026-04-29 02:29 | 40.48939 | -122.31138 | 1725 ft | 142 kts | 262° |
| 2026-04-29 02:29 | 40.48726 | -122.32432 | 2052 ft | 144 kts | 237° |
| 2026-04-29 02:30 | 40.48166 | -122.33501 | 2526 ft | 142 kts | 235° |
| 2026-04-29 02:30 | 40.47620 | -122.34588 | 2970 ft | 143 kts | 235° |
| 2026-04-29 02:30 | 40.47051 | -122.35671 | 3438 ft | 144 kts | 234° |
| 2026-04-29 02:30 | 40.46476 | -122.36753 | 3892 ft | 145 kts | 234° |
| 2026-04-29 02:31 | 40.45704 | -122.37615 | 4295 ft | 150 kts | 207° |
| 2026-04-29 02:31 | 40.44678 | -122.37942 | 4716 ft | 156 kts | 181° |
| 2026-04-29 02:31 | 40.43614 | -122.37644 | 5153 ft | 158 kts | 162° |
| 2026-04-29 02:31 | 40.42555 | -122.37197 | 5589 ft | 161 kts | 164° |
| 2026-04-29 02:32 | 40.41468 | -122.36751 | 6018 ft | 164 kts | 163° |
| 2026-04-29 02:32 | 40.40380 | -122.36296 | 6445 ft | 166 kts | 163° |
| 2026-04-29 02:32 | 40.39273 | -122.35834 | 6851 ft | 168 kts | 162° |
| 2026-04-29 02:32 | 40.38167 | -122.35374 | 7296 ft | 166 kts | 162° |
| 2026-04-29 02:33 | 40.37058 | -122.34910 | 7719 ft | 168 kts | 163° |
| 2026-04-29 02:33 | 40.35966 | -122.34456 | 8172 ft | 166 kts | 163° |
| 2026-04-29 02:33 | 40.34856 | -122.33994 | 8567 ft | 170 kts | 162° |
| 2026-04-29 02:33 | 40.33723 | -122.33523 | 9002 ft | 170 kts | 163° |
| 2026-04-29 02:34 | 40.32585 | -122.33049 | 9393 ft | 174 kts | 162° |
| 2026-04-29 02:34 | 40.31436 | -122.32571 | 9855 ft | 174 kts | 162° |
| 2026-04-29 02:34 | 40.30283 | -122.32092 | 10256 ft | 175 kts | 162° |
| 2026-04-29 02:34 | 40.29122 | -122.31609 | 10650 ft | 175 kts | 162° |
| 2026-04-29 02:35 | 40.27961 | -122.31127 | 11056 ft | 175 kts | 162° |
| 2026-04-29 02:35 | 40.26787 | -122.30639 | 11423 ft | 178 kts | 162° |
| 2026-04-29 02:35 | 40.25606 | -122.30149 | 11814 ft | 179 kts | 162° |
| 2026-04-29 02:35 | 40.24411 | -122.29653 | 12194 ft | 180 kts | 162° |
| 2026-04-29 02:36 | 40.23214 | -122.29157 | 12600 ft | 181 kts | 162° |
| 2026-04-29 02:36 | 40.22009 | -122.28656 | 12990 ft | 181 kts | 162° |
| 2026-04-29 02:36 | 40.20803 | -122.28157 | 13387 ft | 182 kts | 162° |
| 2026-04-29 02:36 | 40.19587 | -122.27653 | 13779 ft | 183 kts | 162° |
| 2026-04-29 02:37 | 40.18384 | -122.27155 | 14131 ft | 185 kts | 162° |
| 2026-04-29 02:37 | 40.17153 | -122.26645 | 14463 ft | 186 kts | 162° |
| 2026-04-29 02:37 | 40.15908 | -122.26129 | 14791 ft | 188 kts | 162° |
| 2026-04-29 02:37 | 40.14653 | -122.25610 | 15121 ft | 190 kts | 162° |
| 2026-04-29 02:38 | 40.13381 | -122.25084 | 15447 ft | 192 kts | 162° |
| 2026-04-29 02:38 | 40.12101 | -122.24555 | 15774 ft | 194 kts | 162° |
| 2026-04-29 02:38 | 40.10825 | -122.23953 | 16077 ft | 196 kts | 150° |
| 2026-04-29 02:38 | 40.09796 | -122.22814 | 16398 ft | 194 kts | 126° |
| 2026-04-29 02:39 | 40.09162 | -122.21283 | 16722 ft | 191 kts | 107° |
| 2026-04-29 02:39 | 40.08669 | -122.19657 | 17046 ft | 193 kts | 108° |
| 2026-04-29 02:39 | 40.08162 | -122.18022 | 17374 ft | 195 kts | 108° |
| 2026-04-29 02:39 | 40.07653 | -122.16371 | 17685 ft | 197 kts | 108° |
| 2026-04-29 02:40 | 40.07151 | -122.14737 | 18004 ft | 198 kts | 107° |
| 2026-04-29 02:40 | 40.06636 | -122.13064 | 18325 ft | 200 kts | 107° |
| 2026-04-29 02:40 | 40.06116 | -122.11374 | 18611 ft | 201 kts | 107° |
| 2026-04-29 02:40 | 40.05590 | -122.09671 | 18909 ft | 202 kts | 107° |
| 2026-04-29 02:41 | 40.05064 | -122.07963 | 19201 ft | 204 kts | 107° |
| 2026-04-29 02:41 | 40.04532 | -122.06242 | 19526 ft | 204 kts | 107° |
| 2026-04-29 02:41 | 40.04000 | -122.04519 | 19825 ft | 205 kts | 106° |
| 2026-04-29 02:41 | 40.03464 | -122.02784 | 20115 ft | 207 kts | 106° |
| 2026-04-29 02:42 | 40.02923 | -122.01037 | 20403 ft | 208 kts | 106° |
| 2026-04-29 02:42 | 40.02378 | -121.99274 | 20697 ft | 210 kts | 106° |
| 2026-04-29 02:42 | 40.01828 | -121.97501 | 20998 ft | 212 kts | 106° |
| 2026-04-29 02:42 | 40.01275 | -121.95715 | 21307 ft | 213 kts | 105° |
| 2026-04-29 02:43 | 40.00723 | -121.93936 | 21603 ft | 215 kts | 105° |
| 2026-04-29 02:43 | 40.00162 | -121.92125 | 21887 ft | 216 kts | 105° |
| 2026-04-29 02:43 | 39.99595 | -121.90300 | 22184 ft | 218 kts | 105° |
| 2026-04-29 02:43 | 39.99024 | -121.88466 | 22484 ft | 219 kts | 105° |
| 2026-04-29 02:44 | 39.98449 | -121.86615 | 22788 ft | 221 kts | 105° |
| 2026-04-29 02:44 | 39.97870 | -121.84755 | 23104 ft | 222 kts | 105° |
| 2026-04-29 02:44 | 39.97288 | -121.82888 | 23403 ft | 223 kts | 105° |
| 2026-04-29 02:44 | 39.96700 | -121.80995 | 23678 ft | 226 kts | 105° |
| 2026-04-29 02:45 | 39.96106 | -121.79094 | 23939 ft | 227 kts | 105° |
| 2026-04-29 02:45 | 39.95510 | -121.77183 | 24180 ft | 228 kts | 105° |
| 2026-04-29 02:45 | 39.94910 | -121.75262 | 24437 ft | 229 kts | 105° |
| 2026-04-29 02:45 | 39.94306 | -121.73329 | 24697 ft | 230 kts | 104° |
| 2026-04-29 02:46 | 39.93701 | -121.71396 | 24939 ft | 231 kts | 104° |
| 2026-04-29 02:46 | 39.93090 | -121.69443 | 25113 ft | 236 kts | 104° |
| 2026-04-29 02:46 | 39.92456 | -121.67410 | 25123 ft | 247 kts | 105° |
| 2026-04-29 02:46 | 39.91794 | -121.65303 | 25132 ft | 256 kts | 105° |
| 2026-04-29 02:47 | 39.91106 | -121.63126 | 25137 ft | 262 kts | 105° |
| 2026-04-29 02:47 | 39.90407 | -121.60907 | 25137 ft | 268 kts | 106° |
| 2026-04-29 02:47 | 39.89696 | -121.58647 | 25141 ft | 271 kts | 106° |
| 2026-04-29 02:47 | 39.88986 | -121.56389 | 25139 ft | 274 kts | 106° |
| 2026-04-29 02:48 | 39.88262 | -121.54088 | 25141 ft | 275 kts | 106° |
| 2026-04-29 02:48 | 39.87532 | -121.51772 | 25162 ft | 277 kts | 107° |
| 2026-04-29 02:48 | 39.86800 | -121.49445 | 25154 ft | 278 kts | 107° |
| 2026-04-29 02:48 | 39.86066 | -121.47115 | 25159 ft | 278 kts | 107° |
| 2026-04-29 02:49 | 39.85329 | -121.44781 | 25158 ft | 279 kts | 107° |
| 2026-04-29 02:49 | 39.84593 | -121.42450 | 25161 ft | 279 kts | 107° |
| 2026-04-29 02:49 | 39.83855 | -121.40117 | 25176 ft | 279 kts | 107° |
| 2026-04-29 02:49 | 39.83113 | -121.37776 | 25173 ft | 280 kts | 107° |
| 2026-04-29 02:50 | 39.82370 | -121.35431 | 25173 ft | 281 kts | 107° |
| 2026-04-29 02:50 | 39.81627 | -121.33087 | 25167 ft | 281 kts | 107° |
| 2026-04-29 02:50 | 39.80882 | -121.30740 | 25166 ft | 281 kts | 107° |
| 2026-04-29 02:50 | 39.80148 | -121.28428 | 25172 ft | 280 kts | 107° |
| 2026-04-29 02:51 | 39.79405 | -121.26088 | 25169 ft | 280 kts | 107° |
| 2026-04-29 02:51 | 39.78661 | -121.23750 | 25181 ft | 280 kts | 107° |
| 2026-04-29 02:51 | 39.77913 | -121.21407 | 25173 ft | 279 kts | 107° |
| 2026-04-29 02:51 | 39.77171 | -121.19076 | 25158 ft | 279 kts | 107° |
| 2026-04-29 02:52 | 39.76429 | -121.16745 | 25166 ft | 279 kts | 107° |
| 2026-04-29 02:52 | 39.75685 | -121.14416 | 25164 ft | 279 kts | 107° |
| 2026-04-29 02:52 | 39.74939 | -121.12081 | 25161 ft | 279 kts | 107° |
| 2026-04-29 02:52 | 39.74194 | -121.09748 | 25163 ft | 279 kts | 107° |
| 2026-04-29 02:53 | 39.73448 | -121.07418 | 25164 ft | 280 kts | 108° |
| 2026-04-29 02:53 | 39.72700 | -121.05086 | 25165 ft | 280 kts | 108° |
| 2026-04-29 02:53 | 39.71953 | -121.02754 | 25166 ft | 279 kts | 108° |
| 2026-04-29 02:53 | 39.71204 | -121.00420 | 25165 ft | 280 kts | 108° |
| 2026-04-29 02:54 | 39.70454 | -120.98083 | 25165 ft | 280 kts | 108° |
| 2026-04-29 02:54 | 39.69704 | -120.95749 | 25189 ft | 280 kts | 108° |
| 2026-04-29 02:54 | 39.68962 | -120.93444 | 25184 ft | 279 kts | 107° |
| 2026-04-29 02:54 | 39.68212 | -120.91115 | 25182 ft | 279 kts | 107° |
| 2026-04-29 02:55 | 39.67474 | -120.88823 | 25173 ft | 278 kts | 107° |
| 2026-04-29 02:55 | 39.66729 | -120.86510 | 25166 ft | 277 kts | 107° |
| 2026-04-29 02:55 | 39.65983 | -120.84201 | 25166 ft | 277 kts | 107° |
| 2026-04-29 02:55 | 39.65239 | -120.81897 | 25162 ft | 276 kts | 107° |
| 2026-04-29 02:56 | 39.64498 | -120.79601 | 25164 ft | 277 kts | 107° |
| 2026-04-29 02:56 | 39.63752 | -120.77298 | 25163 ft | 277 kts | 107° |
| 2026-04-29 02:56 | 39.63008 | -120.75001 | 25163 ft | 277 kts | 108° |
| 2026-04-29 02:56 | 39.62261 | -120.72697 | 25168 ft | 276 kts | 107° |
| 2026-04-29 02:57 | 39.61516 | -120.70398 | 25171 ft | 277 kts | 108° |
| 2026-04-29 02:57 | 39.60766 | -120.68087 | 25168 ft | 277 kts | 107° |
| 2026-04-29 02:57 | 39.60019 | -120.65785 | 25170 ft | 278 kts | 108° |
| 2026-04-29 02:57 | 39.59275 | -120.63498 | 25169 ft | 278 kts | 108° |
| 2026-04-29 02:58 | 39.58522 | -120.61185 | 25169 ft | 279 kts | 108° |
| 2026-04-29 02:58 | 39.57769 | -120.58872 | 25166 ft | 278 kts | 107° |
| 2026-04-29 02:58 | 39.57017 | -120.56567 | 25164 ft | 277 kts | 107° |
| 2026-04-29 02:58 | 39.56268 | -120.54265 | 25164 ft | 277 kts | 107° |
| 2026-04-29 02:59 | 39.55515 | -120.51960 | 25165 ft | 277 kts | 108° |
| 2026-04-29 02:59 | 39.54764 | -120.49661 | 25161 ft | 278 kts | 108° |
| 2026-04-29 02:59 | 39.54007 | -120.47349 | 25157 ft | 278 kts | 108° |
| 2026-04-29 02:59 | 39.53254 | -120.45045 | 25160 ft | 278 kts | 108° |
| 2026-04-29 03:00 | 39.52499 | -120.42742 | 25161 ft | 278 kts | 108° |
| 2026-04-29 03:00 | 39.51743 | -120.40436 | 25163 ft | 278 kts | 108° |
| 2026-04-29 03:00 | 39.50988 | -120.38128 | 25167 ft | 278 kts | 107° |
| 2026-04-29 03:00 | 39.50231 | -120.35825 | 25165 ft | 278 kts | 107° |
| 2026-04-29 03:01 | 39.49475 | -120.33530 | 25163 ft | 277 kts | 107° |
| 2026-04-29 03:01 | 39.48720 | -120.31232 | 25166 ft | 277 kts | 107° |
| 2026-04-29 03:01 | 39.47964 | -120.28937 | 25165 ft | 277 kts | 107° |
| 2026-04-29 03:01 | 39.47219 | -120.26673 | 25151 ft | 277 kts | 107° |
| 2026-04-29 03:02 | 39.46464 | -120.24381 | 25146 ft | 277 kts | 107° |
| 2026-04-29 03:02 | 39.45707 | -120.22089 | 25145 ft | 277 kts | 107° |
| 2026-04-29 03:02 | 39.44951 | -120.19797 | 25144 ft | 277 kts | 107° |
| 2026-04-29 03:02 | 39.44329 | -120.17465 | 25139 ft | 270 kts | 95° |
| 2026-04-29 03:03 | 39.44153 | -120.15089 | 25123 ft | 262 kts | 82° |
| 2026-04-29 03:03 | 39.44384 | -120.12798 | 25120 ft | 253 kts | 69° |
| 2026-04-29 03:03 | 39.44810 | -120.10586 | 25141 ft | 253 kts | 69° |
| 2026-04-29 03:03 | 39.45220 | -120.08374 | 25139 ft | 253 kts | 69° |
| 2026-04-29 03:04 | 39.45628 | -120.06163 | 25137 ft | 252 kts | 69° |
| 2026-04-29 03:04 | 39.46040 | -120.03958 | 25117 ft | 252 kts | 69° |
| 2026-04-29 03:04 | 39.46450 | -120.01761 | 25117 ft | 251 kts | 69° |
| 2026-04-29 03:04 | 39.46860 | -119.99561 | 25148 ft | 251 kts | 69° |
| 2026-04-29 03:05 | 39.47265 | -119.97382 | 25153 ft | 252 kts | 69° |
| 2026-04-29 03:05 | 39.47675 | -119.95169 | 25154 ft | 253 kts | 69° |
| 2026-04-29 03:05 | 39.48086 | -119.92953 | 25155 ft | 253 kts | 69° |
| 2026-04-29 03:05 | 39.48495 | -119.90736 | 25158 ft | 253 kts | 69° |
| 2026-04-29 03:06 | 39.48906 | -119.88515 | 25160 ft | 254 kts | 69° |
| 2026-04-29 03:06 | 39.49318 | -119.86293 | 25158 ft | 254 kts | 69° |
| 2026-04-29 03:06 | 39.49727 | -119.84072 | 25158 ft | 254 kts | 69° |
| 2026-04-29 03:06 | 39.50136 | -119.81854 | 25167 ft | 253 kts | 70° |
| 2026-04-29 03:07 | 39.50543 | -119.79640 | 25161 ft | 252 kts | 70° |
| 2026-04-29 03:07 | 39.50948 | -119.77434 | 25159 ft | 251 kts | 70° |
| 2026-04-29 03:07 | 39.51354 | -119.75229 | 25153 ft | 251 kts | 70° |
| 2026-04-29 03:07 | 39.51758 | -119.73029 | 25154 ft | 251 kts | 70° |
| 2026-04-29 03:08 | 39.52155 | -119.70831 | 25158 ft | 251 kts | 71° |
| 2026-04-29 03:08 | 39.52296 | -119.68551 | 25166 ft | 258 kts | 85° |
| 2026-04-29 03:08 | 39.52034 | -119.66248 | 25172 ft | 266 kts | 98° |
| 2026-04-29 03:08 | 39.51340 | -119.63983 | 25166 ft | 275 kts | 112° |
| 2026-04-29 03:09 | 39.50219 | -119.61943 | 25156 ft | 283 kts | 128° |
| 2026-04-29 03:09 | 39.48813 | -119.60146 | 25154 ft | 284 kts | 131° |
| 2026-04-29 03:09 | 39.47400 | -119.58346 | 25144 ft | 284 kts | 131° |
| 2026-04-29 03:09 | 39.45991 | -119.56550 | 25135 ft | 284 kts | 130° |
| 2026-04-29 03:10 | 39.45038 | -119.55340 | 25130 ft | 284 kts | 131° |
| 2026-04-29 03:10 | 39.43622 | -119.53546 | 25144 ft | 285 kts | 131° |
| 2026-04-29 03:10 | 39.42206 | -119.51751 | 25122 ft | 285 kts | 131° |
| 2026-04-29 03:10 | 39.40812 | -119.49984 | 25118 ft | 284 kts | 131° |
| 2026-04-29 03:11 | 39.39383 | -119.48173 | 25108 ft | 284 kts | 131° |
| 2026-04-29 03:11 | 39.37992 | -119.46410 | 25099 ft | 283 kts | 131° |
| 2026-04-29 03:11 | 39.36582 | -119.44627 | 25102 ft | 283 kts | 131° |
| 2026-04-29 03:11 | 39.35177 | -119.42850 | 25101 ft | 282 kts | 131° |
| 2026-04-29 03:12 | 39.33769 | -119.41071 | 25095 ft | 282 kts | 131° |
| 2026-04-29 03:12 | 39.32366 | -119.39298 | 25094 ft | 282 kts | 131° |
| 2026-04-29 03:12 | 39.30960 | -119.37524 | 25087 ft | 283 kts | 131° |
| 2026-04-29 03:12 | 39.29557 | -119.35753 | 25083 ft | 283 kts | 131° |
| 2026-04-29 03:13 | 39.28148 | -119.33976 | 25078 ft | 283 kts | 131° |
| 2026-04-29 03:13 | 39.26738 | -119.32200 | 25074 ft | 283 kts | 131° |
| 2026-04-29 03:13 | 39.25328 | -119.30424 | 25069 ft | 282 kts | 131° |
| 2026-04-29 03:13 | 39.23941 | -119.28678 | 25066 ft | 282 kts | 131° |
| 2026-04-29 03:14 | 39.22534 | -119.26908 | 25062 ft | 282 kts | 131° |
| 2026-04-29 03:14 | 39.21127 | -119.25140 | 25061 ft | 282 kts | 131° |
| 2026-04-29 03:14 | 39.19720 | -119.23375 | 25078 ft | 282 kts | 132° |
| 2026-04-29 03:14 | 39.18312 | -119.21608 | 25077 ft | 281 kts | 132° |
| 2026-04-29 03:15 | 39.16910 | -119.19848 | 25078 ft | 281 kts | 132° |
| 2026-04-29 03:15 | 39.15511 | -119.18094 | 25077 ft | 281 kts | 132° |
| 2026-04-29 03:15 | 39.14112 | -119.16340 | 25076 ft | 280 kts | 132° |
| 2026-04-29 03:15 | 39.12711 | -119.14586 | 25074 ft | 280 kts | 132° |
| 2026-04-29 03:16 | 39.11329 | -119.12856 | 25071 ft | 280 kts | 132° |
| 2026-04-29 03:16 | 39.09930 | -119.11107 | 25068 ft | 280 kts | 132° |
| 2026-04-29 03:16 | 39.08531 | -119.09358 | 25067 ft | 280 kts | 132° |
| 2026-04-29 03:16 | 39.07131 | -119.07609 | 25066 ft | 280 kts | 132° |
| 2026-04-29 03:17 | 39.05732 | -119.05862 | 25067 ft | 280 kts | 132° |
| 2026-04-29 03:17 | 39.04331 | -119.04114 | 25066 ft | 280 kts | 132° |
| 2026-04-29 03:17 | 39.02928 | -119.02364 | 25065 ft | 280 kts | 132° |
| 2026-04-29 03:17 | 39.01527 | -119.00618 | 25066 ft | 281 kts | 132° |
| 2026-04-29 03:18 | 39.00124 | -118.98871 | 25071 ft | 281 kts | 132° |
| 2026-04-29 03:18 | 38.98722 | -118.97125 | 25069 ft | 281 kts | 132° |
| 2026-04-29 03:18 | 38.97318 | -118.95378 | 25086 ft | 281 kts | 132° |
| 2026-04-29 03:18 | 38.95912 | -118.93630 | 25085 ft | 281 kts | 132° |
| 2026-04-29 03:19 | 38.94509 | -118.91886 | 25084 ft | 281 kts | 132° |
| 2026-04-29 03:19 | 38.93109 | -118.90145 | 25084 ft | 280 kts | 132° |
| 2026-04-29 03:19 | 38.91723 | -118.88426 | 25085 ft | 280 kts | 132° |
| 2026-04-29 03:19 | 38.90321 | -118.86687 | 25083 ft | 280 kts | 132° |
| 2026-04-29 03:20 | 38.88918 | -118.84946 | 25084 ft | 280 kts | 132° |
| 2026-04-29 03:20 | 38.87535 | -118.83232 | 25081 ft | 280 kts | 132° |
| 2026-04-29 03:20 | 38.86132 | -118.81495 | 25082 ft | 280 kts | 133° |
| 2026-04-29 03:20 | 38.84730 | -118.79759 | 25082 ft | 280 kts | 133° |
| 2026-04-29 03:21 | 38.83326 | -118.78021 | 25078 ft | 280 kts | 133° |
| 2026-04-29 03:21 | 38.81923 | -118.76286 | 25077 ft | 280 kts | 133° |
| 2026-04-29 03:21 | 38.80515 | -118.74547 | 25082 ft | 280 kts | 133° |
| 2026-04-29 03:21 | 38.79112 | -118.72813 | 25082 ft | 280 kts | 133° |
| 2026-04-29 03:22 | 38.77706 | -118.71079 | 25081 ft | 280 kts | 133° |
| 2026-04-29 03:22 | 38.76305 | -118.69349 | 25081 ft | 280 kts | 133° |
| 2026-04-29 03:22 | 38.74902 | -118.67619 | 25082 ft | 280 kts | 133° |
| 2026-04-29 03:22 | 38.73500 | -118.65892 | 25096 ft | 280 kts | 133° |
| 2026-04-29 03:23 | 38.72111 | -118.64181 | 25095 ft | 280 kts | 133° |
| 2026-04-29 03:23 | 38.70709 | -118.62456 | 25096 ft | 280 kts | 133° |
| 2026-04-29 03:23 | 38.69302 | -118.60724 | 25094 ft | 281 kts | 133° |
| 2026-04-29 03:23 | 38.67892 | -118.58991 | 25100 ft | 281 kts | 133° |
| 2026-04-29 03:24 | 38.66483 | -118.57260 | 25158 ft | 280 kts | 133° |
| 2026-04-29 03:24 | 38.65077 | -118.55533 | 25159 ft | 281 kts | 133° |
| 2026-04-29 03:24 | 38.63669 | -118.53806 | 25160 ft | 281 kts | 133° |
| 2026-04-29 03:24 | 38.62257 | -118.52074 | 25158 ft | 280 kts | 133° |
| 2026-04-29 03:25 | 38.60852 | -118.50350 | 25155 ft | 280 kts | 133° |
| 2026-04-29 03:25 | 38.59442 | -118.48623 | 25153 ft | 280 kts | 133° |
| 2026-04-29 03:25 | 38.58035 | -118.46900 | 25150 ft | 280 kts | 133° |
| 2026-04-29 03:25 | 38.56626 | -118.45176 | 25146 ft | 280 kts | 133° |
| 2026-04-29 03:26 | 38.55216 | -118.43451 | 25142 ft | 281 kts | 134° |
| 2026-04-29 03:26 | 38.53801 | -118.41721 | 25139 ft | 282 kts | 134° |
| 2026-04-29 03:26 | 38.52383 | -118.39989 | 25135 ft | 282 kts | 134° |
| 2026-04-29 03:26 | 38.50963 | -118.38255 | 25131 ft | 283 kts | 134° |
| 2026-04-29 03:27 | 38.49539 | -118.36518 | 25150 ft | 283 kts | 134° |
| 2026-04-29 03:27 | 38.48115 | -118.34782 | 25143 ft | 283 kts | 134° |
| 2026-04-29 03:27 | 38.46712 | -118.33071 | 25139 ft | 283 kts | 134° |
| 2026-04-29 03:27 | 38.45287 | -118.31337 | 25133 ft | 283 kts | 134° |
| 2026-04-29 03:28 | 38.43863 | -118.29603 | 25125 ft | 283 kts | 134° |
| 2026-04-29 03:28 | 38.42443 | -118.27874 | 25119 ft | 282 kts | 134° |
| 2026-04-29 03:28 | 38.41025 | -118.26149 | 25113 ft | 282 kts | 134° |
| 2026-04-29 03:28 | 38.39606 | -118.24423 | 25103 ft | 282 kts | 135° |
| 2026-04-29 03:29 | 38.38184 | -118.22696 | 25100 ft | 282 kts | 135° |
| 2026-04-29 03:29 | 38.36782 | -118.20995 | 25101 ft | 282 kts | 135° |
| 2026-04-29 03:29 | 38.35366 | -118.19277 | 25101 ft | 282 kts | 135° |
| 2026-04-29 03:29 | 38.33936 | -118.17543 | 25100 ft | 283 kts | 135° |
| 2026-04-29 03:30 | 38.32509 | -118.15813 | 25102 ft | 283 kts | 135° |
| 2026-04-29 03:30 | 38.31084 | -118.14087 | 25100 ft | 283 kts | 135° |
| 2026-04-29 03:30 | 38.29660 | -118.12363 | 25101 ft | 282 kts | 135° |
| 2026-04-29 03:30 | 38.28238 | -118.10643 | 25101 ft | 282 kts | 135° |
| 2026-04-29 03:31 | 38.25391 | -118.07201 | 25104 ft | 282 kts | 135° |
| 2026-04-29 03:31 | 38.23966 | -118.05479 | 25111 ft | 282 kts | 137° |
| 2026-04-29 03:31 | 38.22542 | -118.03762 | 25110 ft | 282 kts | 137° |
| 2026-04-29 03:32 | 38.21116 | -118.02041 | 25107 ft | 282 kts | 137° |
| 2026-04-29 03:32 | 38.19693 | -118.00325 | 25106 ft | 282 kts | 137° |
| 2026-04-29 03:32 | 38.18268 | -117.98607 | 25103 ft | 282 kts | 137° |
| 2026-04-29 03:32 | 38.16861 | -117.96913 | 25101 ft | 282 kts | 137° |
| 2026-04-29 03:33 | 38.15436 | -117.95198 | 25098 ft | 282 kts | 137° |
| 2026-04-29 03:33 | 38.14015 | -117.93488 | 25097 ft | 282 kts | 137° |
| 2026-04-29 03:33 | 38.12592 | -117.91776 | 25096 ft | 282 kts | 137° |
| 2026-04-29 03:33 | 38.11166 | -117.90063 | 25090 ft | 282 kts | 137° |
| 2026-04-29 03:34 | 38.09739 | -117.88350 | 25089 ft | 282 kts | 137° |
| 2026-04-29 03:34 | 38.08313 | -117.86637 | 25092 ft | 282 kts | 137° |
| 2026-04-29 03:34 | 38.06890 | -117.84931 | 25090 ft | 281 kts | 137° |
| 2026-04-29 03:34 | 38.05469 | -117.83226 | 25081 ft | 281 kts | 137° |
| 2026-04-29 03:35 | 38.04049 | -117.81525 | 25082 ft | 281 kts | 137° |
| 2026-04-29 03:35 | 38.02630 | -117.79826 | 25081 ft | 280 kts | 137° |
| 2026-04-29 03:35 | 38.01211 | -117.78127 | 25081 ft | 280 kts | 137° |
| 2026-04-29 03:35 | 37.99732 | -117.76531 | 25090 ft | 278 kts | 147° |
| 2026-04-29 03:36 | 37.98120 | -117.75159 | 25084 ft | 279 kts | 147° |
| 2026-04-29 03:36 | 37.96539 | -117.73790 | 25083 ft | 279 kts | 147° |
| 2026-04-29 03:36 | 37.94936 | -117.72393 | 25082 ft | 280 kts | 147° |
| 2026-04-29 03:36 | 37.93328 | -117.71000 | 25082 ft | 280 kts | 147° |
| 2026-04-29 03:37 | 37.91720 | -117.69611 | 25074 ft | 279 kts | 147° |
| 2026-04-29 03:37 | 37.90117 | -117.68226 | 25073 ft | 279 kts | 147° |
| 2026-04-29 03:37 | 37.88516 | -117.66841 | 25072 ft | 278 kts | 147° |
| 2026-04-29 03:37 | 37.86918 | -117.65462 | 25071 ft | 278 kts | 147° |
| 2026-04-29 03:38 | 37.85319 | -117.64088 | 25062 ft | 278 kts | 147° |
| 2026-04-29 03:38 | 37.83727 | -117.62709 | 25063 ft | 277 kts | 147° |
| 2026-04-29 03:38 | 37.82132 | -117.61330 | 25062 ft | 277 kts | 147° |
| 2026-04-29 03:38 | 37.80538 | -117.59956 | 25063 ft | 277 kts | 147° |
| 2026-04-29 03:39 | 37.78943 | -117.58583 | 25066 ft | 277 kts | 147° |
| 2026-04-29 03:39 | 37.77349 | -117.57210 | 25065 ft | 277 kts | 147° |
| 2026-04-29 03:39 | 37.75752 | -117.55836 | 25065 ft | 277 kts | 147° |
| 2026-04-29 03:39 | 37.74176 | -117.54480 | 25067 ft | 277 kts | 148° |
| 2026-04-29 03:40 | 37.72581 | -117.53110 | 25067 ft | 276 kts | 148° |
| 2026-04-29 03:40 | 37.70990 | -117.51743 | 25069 ft | 276 kts | 148° |
| 2026-04-29 03:40 | 37.69402 | -117.50379 | 25068 ft | 276 kts | 148° |
| 2026-04-29 03:40 | 37.67875 | -117.49068 | 25066 ft | 276 kts | 148° |
| 2026-04-29 03:41 | 37.66229 | -117.47656 | 25068 ft | 276 kts | 148° |
| 2026-04-29 03:41 | 37.64645 | -117.46296 | 25089 ft | 275 kts | 149° |
| 2026-04-29 03:41 | 37.63061 | -117.44940 | 25088 ft | 275 kts | 149° |
| 2026-04-29 03:41 | 37.61480 | -117.43587 | 25086 ft | 275 kts | 149° |
| 2026-04-29 03:42 | 37.59898 | -117.42233 | 25084 ft | 274 kts | 149° |
| 2026-04-29 03:42 | 37.58321 | -117.40882 | 25082 ft | 274 kts | 149° |
| 2026-04-29 03:42 | 37.56742 | -117.39532 | 25071 ft | 274 kts | 150° |
| 2026-04-29 03:42 | 37.55169 | -117.38188 | 25078 ft | 273 kts | 150° |
| 2026-04-29 03:43 | 37.53598 | -117.36846 | 25076 ft | 272 kts | 150° |
| 2026-04-29 03:43 | 37.52053 | -117.35526 | 25075 ft | 272 kts | 150° |
| 2026-04-29 03:43 | 37.50467 | -117.34173 | 25079 ft | 272 kts | 150° |
| 2026-04-29 03:43 | 37.48919 | -117.32853 | 25078 ft | 272 kts | 150° |
| 2026-04-29 03:44 | 37.47351 | -117.31516 | 25078 ft | 272 kts | 150° |
| 2026-04-29 03:44 | 37.45784 | -117.30181 | 25079 ft | 272 kts | 150° |
| 2026-04-29 03:44 | 37.44216 | -117.28846 | 25078 ft | 272 kts | 150° |
| 2026-04-29 03:44 | 37.42642 | -117.27542 | 25083 ft | 270 kts | 154° |
| 2026-04-29 03:45 | 37.41011 | -117.26375 | 25083 ft | 270 kts | 155° |
| 2026-04-29 03:45 | 37.39382 | -117.25199 | 25080 ft | 270 kts | 154° |
| 2026-04-29 03:45 | 37.37754 | -117.24016 | 25080 ft | 270 kts | 154° |
| 2026-04-29 03:45 | 37.36123 | -117.22835 | 25073 ft | 270 kts | 154° |
| 2026-04-29 03:46 | 37.34494 | -117.21660 | 25075 ft | 270 kts | 154° |
| 2026-04-29 03:46 | 37.32864 | -117.20484 | 25074 ft | 270 kts | 154° |
| 2026-04-29 03:46 | 37.31236 | -117.19309 | 25073 ft | 270 kts | 154° |
| 2026-04-29 03:46 | 37.29605 | -117.18132 | 25074 ft | 270 kts | 154° |
| 2026-04-29 03:47 | 37.27981 | -117.16947 | 25077 ft | 270 kts | 154° |
| 2026-04-29 03:47 | 37.26423 | -117.15629 | 25075 ft | 270 kts | 151° |
| 2026-04-29 03:47 | 37.24868 | -117.14307 | 25074 ft | 269 kts | 152° |
| 2026-04-29 03:47 | 37.23317 | -117.12999 | 25070 ft | 268 kts | 151° |
| 2026-04-29 03:48 | 37.21768 | -117.11693 | 25057 ft | 268 kts | 152° |
| 2026-04-29 03:48 | 37.20223 | -117.10388 | 25058 ft | 267 kts | 152° |
| 2026-04-29 03:48 | 37.18680 | -117.09087 | 25056 ft | 268 kts | 152° |
| 2026-04-29 03:48 | 37.17134 | -117.07784 | 25057 ft | 268 kts | 152° |
| 2026-04-29 03:49 | 37.15596 | -117.06490 | 24945 ft | 272 kts | 152° |
| 2026-04-29 03:49 | 37.14016 | -117.05162 | 24800 ft | 275 kts | 152° |
| 2026-04-29 03:49 | 37.12418 | -117.03817 | 24661 ft | 278 kts | 152° |
| 2026-04-29 03:49 | 37.10835 | -117.02461 | 24534 ft | 275 kts | 152° |
| 2026-04-29 03:50 | 37.09233 | -117.01133 | 24394 ft | 277 kts | 152° |
| 2026-04-29 03:50 | 37.07626 | -116.99793 | 24255 ft | 278 kts | 151° |
| 2026-04-29 03:50 | 37.06016 | -116.98436 | 24104 ft | 279 kts | 151° |
| 2026-04-29 03:50 | 37.04402 | -116.97078 | 23967 ft | 279 kts | 151° |
| 2026-04-29 03:51 | 37.02787 | -116.95720 | 23810 ft | 281 kts | 153° |
| 2026-04-29 03:51 | 37.01158 | -116.94355 | 23671 ft | 283 kts | 153° |
| 2026-04-29 03:51 | 36.99521 | -116.92985 | 23501 ft | 284 kts | 153° |
| 2026-04-29 03:51 | 36.97876 | -116.91617 | 23331 ft | 284 kts | 152° |
| 2026-04-29 03:52 | 36.96235 | -116.90235 | 23164 ft | 284 kts | 152° |
| 2026-04-29 03:52 | 36.94591 | -116.88853 | 22998 ft | 284 kts | 152° |
| 2026-04-29 03:52 | 36.92950 | -116.87481 | 22823 ft | 284 kts | 152° |
| 2026-04-29 03:52 | 36.91310 | -116.86112 | 22665 ft | 282 kts | 153° |
| 2026-04-29 03:53 | 36.89689 | -116.84757 | 22500 ft | 279 kts | 153° |
| 2026-04-29 03:53 | 36.88079 | -116.83411 | 22335 ft | 277 kts | 153° |
| 2026-04-29 03:53 | 36.86487 | -116.82080 | 22172 ft | 275 kts | 152° |
| 2026-04-29 03:53 | 36.84898 | -116.80754 | 21976 ft | 274 kts | 154° |
| 2026-04-29 03:54 | 36.83315 | -116.79434 | 21817 ft | 273 kts | 154° |
| 2026-04-29 03:54 | 36.81733 | -116.78116 | 21658 ft | 273 kts | 154° |
| 2026-04-29 03:54 | 36.80155 | -116.76802 | 21500 ft | 272 kts | 154° |
| 2026-04-29 03:54 | 36.78582 | -116.75491 | 21343 ft | 272 kts | 154° |
| 2026-04-29 03:55 | 36.77002 | -116.74176 | 21176 ft | 272 kts | 154° |
| 2026-04-29 03:55 | 36.75432 | -116.72870 | 21021 ft | 271 kts | 154° |
| 2026-04-29 03:55 | 36.73878 | -116.71574 | 21005 ft | 266 kts | 154° |
| 2026-04-29 03:55 | 36.72368 | -116.70316 | 21002 ft | 263 kts | 154° |
| 2026-04-29 03:56 | 36.70854 | -116.69059 | 20988 ft | 261 kts | 154° |
| 2026-04-29 03:56 | 36.69348 | -116.67809 | 20986 ft | 259 kts | 154° |
| 2026-04-29 03:56 | 36.67851 | -116.66566 | 20987 ft | 258 kts | 154° |
| 2026-04-29 03:56 | 36.66363 | -116.65330 | 20986 ft | 256 kts | 156° |
| 2026-04-29 03:57 | 36.64881 | -116.64102 | 20985 ft | 256 kts | 156° |
| 2026-04-29 03:57 | 36.63400 | -116.62876 | 20982 ft | 255 kts | 156° |
| 2026-04-29 03:57 | 36.62425 | -116.62068 | 20982 ft | 254 kts | 156° |
| 2026-04-29 03:57 | 36.60978 | -116.60792 | 20975 ft | 259 kts | 148° |
| 2026-04-29 03:58 | 36.59669 | -116.59221 | 20981 ft | 261 kts | 145° |
| 2026-04-29 03:58 | 36.58352 | -116.57659 | 20982 ft | 261 kts | 146° |
| 2026-04-29 03:58 | 36.57033 | -116.56107 | 20983 ft | 261 kts | 146° |
| 2026-04-29 03:58 | 36.55713 | -116.54543 | 20977 ft | 261 kts | 146° |
| 2026-04-29 03:59 | 36.54399 | -116.52985 | 20979 ft | 261 kts | 146° |
| 2026-04-29 03:59 | 36.53086 | -116.51428 | 20978 ft | 261 kts | 146° |
| 2026-04-29 03:59 | 36.51786 | -116.49890 | 20976 ft | 261 kts | 146° |
| 2026-04-29 03:59 | 36.50480 | -116.48345 | 20973 ft | 261 kts | 146° |
| 2026-04-29 04:00 | 36.49170 | -116.46794 | 20977 ft | 260 kts | 147° |
| 2026-04-29 04:00 | 36.47857 | -116.45243 | 20974 ft | 261 kts | 147° |
| 2026-04-29 04:00 | 36.46541 | -116.43690 | 20950 ft | 262 kts | 147° |
| 2026-04-29 04:00 | 36.45217 | -116.42084 | 20796 ft | 269 kts | 145° |
| 2026-04-29 04:01 | 36.43879 | -116.40431 | 20576 ft | 274 kts | 145° |
| 2026-04-29 04:01 | 36.42507 | -116.38759 | 20317 ft | 278 kts | 145° |
| 2026-04-29 04:01 | 36.41132 | -116.37065 | 20061 ft | 275 kts | 144° |
| 2026-04-29 04:01 | 36.39808 | -116.35423 | 19805 ft | 271 kts | 144° |
| 2026-04-29 04:02 | 36.38481 | -116.33786 | 19549 ft | 267 kts | 145° |
| 2026-04-29 04:02 | 36.37164 | -116.32169 | 19296 ft | 265 kts | 145° |
| 2026-04-29 04:02 | 36.35858 | -116.30563 | 19047 ft | 263 kts | 144° |
| 2026-04-29 04:02 | 36.34562 | -116.28970 | 18800 ft | 262 kts | 144° |
| 2026-04-29 04:03 | 36.33268 | -116.27379 | 18552 ft | 261 kts | 144° |
| 2026-04-29 04:03 | 36.31983 | -116.25801 | 18294 ft | 260 kts | 144° |
| 2026-04-29 04:03 | 36.30701 | -116.24228 | 18035 ft | 258 kts | 144° |
| 2026-04-29 04:03 | 36.29429 | -116.22664 | 17783 ft | 256 kts | 144° |
| 2026-04-29 04:04 | 36.28241 | -116.21008 | 17532 ft | 259 kts | 137° |
| 2026-04-29 04:04 | 36.27124 | -116.19263 | 17295 ft | 258 kts | 137° |
| 2026-04-29 04:04 | 36.26001 | -116.17536 | 17053 ft | 256 kts | 137° |
| 2026-04-29 04:04 | 36.24882 | -116.15824 | 16812 ft | 256 kts | 136° |
| 2026-04-29 04:05 | 36.23776 | -116.14127 | 16573 ft | 255 kts | 136° |
| 2026-04-29 04:05 | 36.22662 | -116.12416 | 16339 ft | 254 kts | 136° |
| 2026-04-29 04:05 | 36.21555 | -116.10715 | 16099 ft | 253 kts | 136° |
| 2026-04-29 04:05 | 36.20451 | -116.09023 | 15860 ft | 252 kts | 136° |
| 2026-04-29 04:06 | 36.19354 | -116.07341 | 15625 ft | 251 kts | 135° |
| 2026-04-29 04:06 | 36.18260 | -116.05665 | 15388 ft | 250 kts | 135° |
| 2026-04-29 04:06 | 36.17168 | -116.03993 | 15151 ft | 249 kts | 135° |
| 2026-04-29 04:06 | 36.16080 | -116.02328 | 14882 ft | 249 kts | 135° |
| 2026-04-29 04:07 | 36.14993 | -116.00664 | 14662 ft | 248 kts | 135° |
| 2026-04-29 04:07 | 36.13907 | -115.99004 | 14433 ft | 248 kts | 135° |
| 2026-04-29 04:07 | 36.12821 | -115.97343 | 14199 ft | 248 kts | 135° |
| 2026-04-29 04:07 | 36.11745 | -115.95688 | 13989 ft | 246 kts | 133° |
| 2026-04-29 04:08 | 36.10764 | -115.94026 | 13983 ft | 237 kts | 131° |
| 2026-04-29 04:08 | 36.09784 | -115.92416 | 13977 ft | 232 kts | 132° |
| 2026-04-29 04:08 | 36.08817 | -115.90829 | 13965 ft | 230 kts | 132° |
| 2026-04-29 04:08 | 36.07864 | -115.89252 | 13964 ft | 229 kts | 131° |
| 2026-04-29 04:09 | 36.06911 | -115.87674 | 13984 ft | 229 kts | 131° |
| 2026-04-29 04:09 | 36.05955 | -115.86093 | 13984 ft | 229 kts | 131° |
| 2026-04-29 04:09 | 36.04999 | -115.84515 | 13983 ft | 230 kts | 131° |
| 2026-04-29 04:09 | 36.03930 | -115.83082 | 13993 ft | 224 kts | 148° |
| 2026-04-29 04:10 | 36.02597 | -115.82144 | 14005 ft | 218 kts | 165° |
| 2026-04-29 04:10 | 36.01163 | -115.81558 | 14002 ft | 217 kts | 167° |
| 2026-04-29 04:10 | 35.99729 | -115.80962 | 14002 ft | 218 kts | 167° |
| 2026-04-29 04:10 | 35.98295 | -115.80366 | 13993 ft | 218 kts | 168° |
| 2026-04-29 04:11 | 35.96873 | -115.79781 | 13995 ft | 218 kts | 168° |
| 2026-04-29 04:11 | 35.95431 | -115.79189 | 13994 ft | 218 kts | 168° |
| 2026-04-29 04:11 | 35.93989 | -115.78596 | 13986 ft | 219 kts | 168° |
| 2026-04-29 04:11 | 35.92524 | -115.77994 | 13988 ft | 224 kts | 168° |
| 2026-04-29 04:12 | 35.91029 | -115.77382 | 13993 ft | 228 kts | 167° |
| 2026-04-29 04:12 | 35.89516 | -115.76760 | 13995 ft | 230 kts | 167° |
| 2026-04-29 04:12 | 35.87991 | -115.76134 | 14008 ft | 231 kts | 167° |
| 2026-04-29 04:12 | 35.86464 | -115.75506 | 14009 ft | 232 kts | 167° |
| 2026-04-29 04:13 | 35.84933 | -115.74878 | 14007 ft | 232 kts | 167° |
| 2026-04-29 04:13 | 35.83397 | -115.74248 | 14006 ft | 233 kts | 167° |
| 2026-04-29 04:13 | 35.81860 | -115.73617 | 14004 ft | 232 kts | 167° |
| 2026-04-29 04:13 | 35.80319 | -115.72987 | 13964 ft | 234 kts | 167° |
| 2026-04-29 04:14 | 35.78784 | -115.72332 | 13883 ft | 234 kts | 163° |
| 2026-04-29 04:14 | 35.77388 | -115.71266 | 13778 ft | 239 kts | 145° |
| 2026-04-29 04:14 | 35.76250 | -115.69756 | 13680 ft | 242 kts | 133° |
| 2026-04-29 04:14 | 35.75208 | -115.68140 | 13602 ft | 240 kts | 133° |
| 2026-04-29 04:15 | 35.74171 | -115.66562 | 13519 ft | 240 kts | 134° |
| 2026-04-29 04:15 | 35.73126 | -115.64970 | 13442 ft | 239 kts | 133° |
| 2026-04-29 04:15 | 35.72086 | -115.63378 | 13371 ft | 238 kts | 133° |
| 2026-04-29 04:15 | 35.71044 | -115.61786 | 13291 ft | 238 kts | 133° |
| 2026-04-29 04:16 | 35.70055 | -115.60153 | 13196 ft | 240 kts | 124° |
| 2026-04-29 04:16 | 35.69461 | -115.58214 | 13091 ft | 244 kts | 105° |
| 2026-04-29 04:16 | 35.69327 | -115.56125 | 12996 ft | 245 kts | 93° |
| 2026-04-29 04:16 | 35.69301 | -115.54037 | 12919 ft | 243 kts | 94° |
| 2026-04-29 04:17 | 35.69264 | -115.51959 | 12841 ft | 242 kts | 94° |
| 2026-04-29 04:17 | 35.69227 | -115.49891 | 12773 ft | 242 kts | 94° |
| 2026-04-29 04:17 | 35.69192 | -115.47823 | 12695 ft | 241 kts | 94° |
| 2026-04-29 04:17 | 35.69156 | -115.45784 | 12618 ft | 241 kts | 94° |
| 2026-04-29 04:18 | 35.69118 | -115.43723 | 12540 ft | 240 kts | 94° |
| 2026-04-29 04:18 | 35.69084 | -115.41675 | 12460 ft | 239 kts | 94° |
| 2026-04-29 04:18 | 35.69048 | -115.39632 | 12383 ft | 238 kts | 94° |
| 2026-04-29 04:18 | 35.69011 | -115.37598 | 12307 ft | 238 kts | 94° |
| 2026-04-29 04:19 | 35.68974 | -115.35564 | 12231 ft | 237 kts | 94° |
| 2026-04-29 04:19 | 35.69025 | -115.33537 | 12148 ft | 237 kts | 90° |
| 2026-04-29 04:19 | 35.69084 | -115.31502 | 12069 ft | 240 kts | 90° |
| 2026-04-29 04:19 | 35.69135 | -115.29442 | 11990 ft | 241 kts | 90° |
| 2026-04-29 04:20 | 35.69200 | -115.27380 | 11916 ft | 242 kts | 91° |
| 2026-04-29 04:20 | 35.69431 | -115.25338 | 11805 ft | 244 kts | 70° |
| 2026-04-29 04:20 | 35.70399 | -115.23682 | 11691 ft | 242 kts | 40° |
| 2026-04-29 04:20 | 35.71625 | -115.22271 | 11617 ft | 241 kts | 43° |
| 2026-04-29 04:21 | 35.72834 | -115.20868 | 11344 ft | 236 kts | 42° |
| 2026-04-29 04:21 | 35.74024 | -115.19505 | 11072 ft | 231 kts | 42° |
| 2026-04-29 04:21 | 35.75195 | -115.18174 | 10798 ft | 228 kts | 42° |
| 2026-04-29 04:21 | 35.76363 | -115.16855 | 10529 ft | 227 kts | 42° |
| 2026-04-29 04:22 | 35.77511 | -115.15568 | 10170 ft | 215 kts | 42° |
| 2026-04-29 04:22 | 35.78570 | -115.14388 | 9759 ft | 197 kts | 42° |
| 2026-04-29 04:22 | 35.79616 | -115.13398 | 9287 ft | 184 kts | 22° |
| 2026-04-29 04:22 | 35.80834 | -115.13141 | 8840 ft | 174 kts | 358° |
| 2026-04-29 04:23 | 35.82025 | -115.13236 | 8424 ft | 170 kts | 353° |
| 2026-04-29 04:23 | 35.83157 | -115.13340 | 8000 ft | 157 kts | 355° |
| 2026-04-29 04:23 | 35.84229 | -115.13414 | 7477 ft | 152 kts | 356° |
| 2026-04-29 04:23 | 35.85273 | -115.13479 | 6962 ft | 150 kts | 356° |
| 2026-04-29 04:24 | 35.86312 | -115.13541 | 6466 ft | 149 kts | 358° |
| 2026-04-29 04:24 | 35.87349 | -115.13605 | 5926 ft | 149 kts | 359° |
| 2026-04-29 04:24 | 35.88372 | -115.13636 | 5391 ft | 146 kts | 4° |
| 2026-04-29 04:24 | 35.89389 | -115.13615 | 4861 ft | 143 kts | 2° |
| 2026-04-29 04:25 | 35.90347 | -115.13613 | 4321 ft | 136 kts | 4° |
| 2026-04-29 04:25 | 35.91285 | -115.13603 | 3770 ft | 130 kts | 4° |
| 2026-04-29 04:25 | 35.92171 | -115.13599 | 3330 ft | 129 kts | 5° |
| 2026-04-29 04:25 | 35.92985 | -115.13601 | 3232 ft | 106 kts | 4° |
| 2026-04-29 04:26 | 35.93721 | -115.13602 | 3115 ft | 106 kts | 4° |
| 2026-04-29 04:26 | 35.94462 | -115.13577 | 2947 ft | 107 kts | 3° |
| 2026-04-29 04:26 | 35.95209 | -115.13562 | 2803 ft | 108 kts | 1° |
| 2026-04-29 04:26 | 35.95973 | -115.13560 | 2617 ft | 111 kts | 1° |
| 2026-04-29 04:27 | 35.96711 | -115.13547 | 2462 ft | 92 kts | 0° |
| 2026-04-29 04:27 | 35.97085 | -115.13562 | 2450 ft | 16 kts | 303° |
| 2026-04-29 04:27 | 35.97092 | -115.13593 | 2451 ft | 0 kts | 272° |
| 2026-04-29 04:28 | 35.97092 | -115.13594 | 2451 ft | 1 kts | 272° |
| 2026-04-29 04:28 | 35.97097 | -115.13633 | 2452 ft | 10 kts | 303° |
| 2026-04-29 04:28 | 35.97206 | -115.13644 | 2449 ft | 20 kts | 1° |
| 2026-04-29 04:29 | 35.97345 | -115.13644 | 2455 ft | 20 kts | 360° |
| 2026-04-29 04:29 | 35.97442 | -115.13679 | 2446 ft | 9 kts | 276° |
| 2026-04-29 04:29 | 35.97444 | -115.13754 | 2442 ft | 14 kts | 271° |
| 2026-04-29 04:29 | 35.97447 | -115.13896 | 2442 ft | 9 kts | 312° |
| 2026-04-29 04:30 | 35.97465 | -115.13898 | 2437 ft | 4 kts | 360° |
| 2026-04-29 04:30 | 35.97469 | -115.13898 | 2438 ft | 0 kts | 2° |